Historyczne dane pomiarowe

Dodano dane terminowe – wersja testowa.

Dane z okresu 1951-2019

Wersja bazy: 1.34 [2019-03-16, lista zmian], aktualizacja planowana na 2019-04-15

Dane meteo z obszaru Polski uzyskane na podstawie danych udostępnionych przez Instytut Meteorologii i Gospodarki Wodnej – Państwowy Instytut Badawczy.

 

Wybierz Datę:    

       

TemperaturaWilgotnośćWiatrCiśnienieOpadyŚniegCzas trwania zjawisk
 Stacja t tx tn tng RH VA  wxwx mslp ppp RRR   cm mm wxwxwxwxwxwxwx
1983-08-14 10.1 13.7 7.2- 86.3- 5.7 0.7---- 0.0------------
1983-08-13 12.8 18.3 9.5- 87.8- 6.0 1.3---- 5.7------------
1983-08-12 17.3 22.6 12.5- 76.3- 2.0 1.0---- 0.0------------
1983-08-11 17.0 21.0 14.0- 81.0- 1.3 1.0---- 0.0------------
1983-08-10 16.1 21.0 11.9- 76.0- 1.0 1.0---- 0.0------------
1983-08-09 16.1 21.0 13.3- 87.5- 5.3 0.7---- 0.0------------
1983-08-08 13.7 17.3 12.3- 96.5- 6.0 1.0---- 5.0------------
1983-08-07 11.4 13.4 9.9- 97.8- 8.0 0.3---- 1.1------------
1983-08-06 10.8 14.3 8.4- 89.5- 7.0 1.3---- 0.6------------
1983-08-05 7.8 8.9 5.9- 96.8- 7.3 1.3---- 0.1------------
1983-08-04 8.0 13.1 7.3- 97.3- 8.0 1.0---- 4.4------------
1983-08-03 14.8 16.6 13.1- 87.0- 5.0 3.0---- 3.0------------
1983-08-02 17.5 22.7 15.5- 80.8- 6.3 0.7---- 2.1------------
1983-08-01 19.8 26.0 13.1- 51.5- 0.0 2.0---- 0.0------------
1983-07-31 16.0 22.1 10.6- 60.5- 0.0 0.7---- 0.0------------
1983-07-30 14.4 18.4 12.5- 90.0- 5.3 1.0---- 0.1------------
1983-07-29 16.3 19.9 14.1- 77.0- 4.7 0.7---- 14.3------------
1983-07-28 21.3 25.3 18.7- 61.8- 3.0 0.7---- 0.0------------
1983-07-27 21.8 28.9 15.2- 46.8- 0.0 0.7---- 0.0------------
1983-07-26 17.2 23.0 11.0- 64.5- 0.0 1.0---- 0.0------------
1983-07-25 14.0 17.9 10.8- 81.3- 4.0 0.7---- 0.0------------
1983-07-24 15.5 20.2 10.7- 74.0- 1.3 1.0---- 0.0------------
1983-07-23 13.2 17.9 10.1- 87.3- 6.3 0.3---- 0.0------------
1983-07-22 8.8 11.3 5.3- 90.3- 8.0 1.0---- 5.4------------
1983-07-21 8.5 11.7 6.3- 78.8- 5.3 0.7---- 0.6------------
1983-07-20 13.8 22.5 9.0- 89.0- 4.3 0.7---- 3.1------------
1983-07-19 20.8 25.0 16.1- 63.3- 0.3 1.3---- 0.0------------
1983-07-18 21.3 27.0 15.7- 60.5- 1.3 0.3---- 1.7------------
1983-07-17 19.1 23.1 14.1- 70.8- 1.3 0.0---- 0.0------------
1983-07-16 17.6 23.7 13.5- 69.3- 3.3 0.7---- 0.0------------
1983-07-15 16.0 21.1 13.3- 75.0- 3.3 0.3---- 0.0------------
1983-07-14 13.7 18.3 12.9- 97.3- 8.0 0.7---- 18.8------------
1983-07-13 16.7 21.6 13.4- 80.0- 4.0 1.3---- 16.7------------
1983-07-12 15.1 19.1 12.9- 95.0- 7.3 0.7---- 7.8------------
1983-07-11 17.4 21.4 14.9- 74.8- 6.0 1.0---- 8.7------------
1983-07-10 20.0 24.0 16.2- 55.8- 1.0 1.3---- 0.0------------
1983-07-09 19.1 22.9 14.3- 50.3- 0.7 0.7---- 0.0------------
1983-07-08 19.8 22.7 14.9- 47.3- 0.0 0.7---- 0.0------------
1983-07-07 20.7 24.7 16.8- 58.0- 1.3 1.3---- 0.0------------
1983-07-06 19.8 24.2 15.2- 64.3- 1.7 0.7---- 0.0------------
1983-07-05 19.2 22.6 13.6- 59.3- 2.7 1.0---- 0.0------------
1983-07-04 17.5 21.6 12.9- 61.8- 1.3 1.0---- 0.0------------
1983-07-03 15.3 20.5 10.2- 76.5- 2.0 1.3---- 0.0------------
1983-07-02 13.3 18.7 12.3- 96.3- 7.3 0.7---- 0.0------------
1983-07-01 16.8 21.6 10.9- 61.8- 2.3 0.7---- 0.0------------
1983-06-30 14.0 20.1 8.0- 57.8- 2.3 1.0---- 0.0------------
1983-06-29 9.8 14.6 5.0- 70.8- 3.0 1.0---- 0.0------------
1983-06-28 12.6 19.4 10.3- 93.8- 7.7 0.7---- 8.8------------
1983-06-27 17.6 23.5 13.8- 77.8- 3.3 1.0---- 12.0------------
1983-06-26 17.3 21.6 13.3- 83.3- 3.7 0.7---- 0.0------------
1983-06-25 17.0 22.7 10.7- 62.5- 0.0 2.3---- 2.9------------
1983-06-24 16.0 22.2 9.8- 56.5- 0.7 1.3---- 0.0------------
1983-06-23 13.2 19.3 5.9- 55.5- 0.0 1.0---- 0.0------------
1983-06-22 14.4 18.0 11.0- 62.3- 0.3 1.0---- 0.0------------
1983-06-21 16.4 21.0 12.3- 76.3- 1.7 0.3---- 0.0------------
1983-06-20 13.6 14.7 12.4- 93.8- 6.7 1.0---- 2.7------------
1983-06-19 10.0 12.5 8.4- 93.8- 8.0 0.7---- 46.6------------
1983-06-18 7.4 9.6 5.6- 94.8- 8.0 1.3---- 13.5------------
1983-06-17 6.9 8.1 5.9- 93.8- 8.0 1.0---- 4.8------------
1983-06-16 6.6 7.6 4.5- 95.8- 8.0 1.7---- 7.5------------
291.5 ms

 

Źródłem pochodzenia danych jest Instytut Meteorologii i Gospodarki Wodnej – Państwowy Instytut Badawczy. Dane Instytutu Meteorologii i Gospodarki Wodnej – Państwowego Instytutu Badawczego zostały przetworzone.

Dane źródłowe można odnaleźć na stronie https://dane.imgw.pl